Time;durP1;ratioP1;P1;durP2;ratioP2;P2;SDS_P1;SDS_P2;PMS_P1;PMS_P2;Temp;Humidity;BMP_temperature;BMP_pressure;BME280_temperature;BME280_humidity;BME280_pressure;Samples;Min_cycle;Max_cycle;Signal;HPM_P1;HPM_P2
2022/09/08 07:31:51;;;;;;;;;;;;;;;;;;;;;
2022/09/08 07:35:36;;;;;;;16.13;14.75;;;32.20;99.90;;;;;;4793408;23;20041;-93
2022/09/08 07:39:19;;;;;;;;;;;;;;;;;;;;;
2022/09/08 07:42:27;;;;;;;16.63;15.52;;;31.50;99.90;;;;;;4795830;29;20051;-93
2022/09/08 07:56:39;;;;;;;16.00;14.95;;;31.90;99.90;;;;;;5007105;23;20195;-93
2022/09/08 07:59:15;;;;;;;15.15;14.15;;;32.10;99.90;;;;;;4861633;29;20033;-92
2022/09/08 08:02:20;;;;;;;16.63;15.13;;;31.30;99.90;;;;;;4831675;29;20128;-93
2022/09/08 08:05:36;;;;;;;15.82;14.63;;;31.20;99.90;;;;;;4827581;29;20046;-93
2022/09/08 08:08:30;;;;;;;15.25;14.25;;;31.80;99.90;;;;;;4826053;29;20034;-93
2022/09/08 08:11:33;;;;;;;16.77;15.48;;;32.40;99.90;;;;;;4791034;29;20111;-93
2022/09/08 12:01:35;;;;;;;13.15;12.15;;;31.00;99.90;;;;;;4878488;29;19949;-93
2022/09/08 12:07:09;;;;;;;13.93;12.82;;;31.60;99.90;;;;;;5289091;23;20026;-93
2022/09/08 12:10:10;;;;;;;13.57;12.73;;;31.70;99.90;;;;;;4887379;29;20059;-94
2022/09/08 12:13:13;;;;;;;12.68;11.80;;;31.60;99.90;;;;;;4868718;29;20041;-92
2022/09/08 13:42:59;;;;;;;;;;;;;;;;;;;;;
2022/09/08 13:54:37;;;;;;;12.55;11.65;;;30.50;99.90;;;;;;5043140;23;20045;-92
2022/09/08 17:18:07;;;;;;;18.27;6.72;;;26.70;99.90;;;;;;4878238;29;20067;-93
2022/09/08 17:20:35;;;;;;;12.13;7.07;;;26.60;99.90;;;;;;4860540;29;20117;-93
2022/09/08 17:23:27;;;;;;;10.57;6.22;;;26.70;99.90;;;;;;4860910;29;20495;-92
2022/09/08 17:26:16;;;;;;;9.32;6.00;;;26.60;99.90;;;;;;4860367;29;20089;-91
2022/09/08 17:29:07;;;;;;;10.70;6.70;;;26.50;99.90;;;;;;4860246;29;20060;-92
2022/09/08 17:31:39;;;;;;;16.60;6.13;;;26.50;99.90;;;;;;4861115;29;20070;-93
2022/09/08 17:34:27;;;;;;;14.50;7.25;;;26.50;99.90;;;;;;4861259;29;20037;-92
2022/09/08 17:37:15;;;;;;;8.93;6.20;;;26.40;99.90;;;;;;4860498;29;20030;-91
2022/09/08 17:40:04;;;;;;;12.27;6.65;;;26.40;99.90;;;;;;4860374;29;20041;-91
2022/09/08 17:43:20;;;;;;;16.05;6.30;;;26.40;99.90;;;;;;4863891;29;20101;-90
2022/09/08 17:46:01;;;;;;;11.27;6.60;;;26.40;99.90;;;;;;4790019;29;20035;-92
2022/09/08 17:49:27;;;;;;;10.15;5.85;;;26.40;99.90;;;;;;4790736;30;20044;-93
2022/09/08 17:59:00;;;;;;;14.38;6.55;;;26.30;99.90;;;;;;5101316;23;20068;-94
2022/09/08 18:02:33;;;;;;;17.67;7.90;;;26.40;99.90;;;;;;4832348;29;20046;-94
2022/09/08 18:15:25;;;;;;;10.65;6.88;;;26.40;99.90;;;;;;5403939;23;20569;-91
2022/09/08 18:35:36;;;;;;;15.05;7.93;;;26.40;99.90;;;;;;5237246;23;20099;-94
2022/09/08 18:38:33;;;;;;;11.32;6.55;;;26.40;99.90;;;;;;4871751;29;20127;-93
2022/09/08 18:41:12;;;;;;;17.88;8.68;;;26.40;99.90;;;;;;4872509;29;20049;-93
2022/09/08 18:47:54;;;;;;;13.15;7.22;;;26.30;99.90;;;;;;4987558;23;20546;-93
2022/09/08 18:51:02;;;;;;;13.15;7.35;;;26.30;99.90;;;;;;4851034;29;20036;-93
2022/09/08 18:54:19;;;;;;;18.70;8.15;;;26.30;99.90;;;;;;4867008;29;20396;-95
2022/09/08 18:57:30;;;;;;;13.60;6.78;;;26.30;99.90;;;;;;4852123;29;20062;-92
2022/09/08 19:00:25;;;;;;;18.90;7.50;;;26.30;99.90;;;;;;4880464;23;20120;-93
2022/09/08 19:03:12;;;;;;;14.15;6.60;;;26.30;99.90;;;;;;4912538;29;20128;-92
2022/09/08 20:26:49;;;;;;;17.20;8.18;;;26.30;99.90;;;;;;4879914;29;20392;-91
2022/09/08 20:29:21;;;;;;;18.75;8.55;;;26.40;99.90;;;;;;4859048;29;20475;-91
2022/09/08 20:31:51;;;;;;;20.83;8.60;;;26.40;99.90;;;;;;4830569;29;20078;-92
2022/09/08 20:34:51;;;;;;;15.75;7.85;;;26.40;99.90;;;;;;4831283;29;20038;-92
2022/09/08 20:37:53;;;;;;;24.42;7.95;;;26.40;99.90;;;;;;4830294;29;20032;-92
2022/09/08 20:40:45;;;;;;;20.13;8.05;;;26.40;99.90;;;;;;4796853;29;20042;-90
2022/09/08 20:43:40;;;;;;;22.23;8.80;;;26.40;99.90;;;;;;4830443;29;20050;-90
2022/09/08 20:46:45;;;;;;;19.38;8.32;;;26.40;99.90;;;;;;4830624;29;20065;-92
2022/09/08 20:49:26;;;;;;;17.80;7.97;;;26.30;99.90;;;;;;4820437;29;20045;-92
2022/09/08 20:52:20;;;;;;;16.77;9.10;;;26.30;99.90;;;;;;4830399;29;20040;-93
2022/09/08 20:55:09;;;;;;;21.52;8.77;;;26.30;99.90;;;;;;4830286;29;20154;-94
2022/09/08 20:57:41;;;;;;;24.27;9.52;;;26.30;99.90;;;;;;4830081;29;20124;-92
2022/09/08 21:00:29;;;;;;;17.10;8.70;;;26.30;99.90;;;;;;4830111;29;20502;-91
2022/09/08 21:02:58;;;;;;;20.33;8.13;;;26.30;99.90;;;;;;4830011;29;20041;-92
2022/09/08 21:05:36;;;;;;;25.52;8.95;;;26.30;99.90;;;;;;4829984;29;20029;-92
2022/09/08 21:08:19;;;;;;;21.48;9.05;;;26.30;99.90;;;;;;4830275;29;20033;-93
2022/09/08 21:11:10;;;;;;;25.73;9.88;;;26.30;99.90;;;;;;4829864;29;20089;-92
2022/09/08 21:13:54;;;;;;;21.08;8.07;;;26.30;99.90;;;;;;4830118;29;20105;-91
2022/09/08 21:16:22;;;;;;;;;;;26.30;99.90;;;;;;4832739;29;20034;-91
2022/09/08 21:19:15;;;;;;;23.02;8.75;;;26.30;99.90;;;;;;4848362;29;19912;-92
2022/09/08 21:22:09;;;;;;;17.80;8.50;;;26.30;99.90;;;;;;4833228;29;20045;-91
2022/09/08 21:25:02;;;;;;;19.75;8.55;;;26.40;99.90;;;;;;4833254;29;20460;-92
2022/09/08 21:28:07;;;;;;;19.17;8.48;;;26.30;99.90;;;;;;4778682;29;20061;-91
2022/09/08 21:30:48;;;;;;;17.52;7.82;;;26.30;99.90;;;;;;4778276;29;20117;-93
2022/09/08 21:33:21;;;;;;;23.95;8.43;;;26.30;99.90;;;;;;4778347;29;20058;-92
2022/09/08 21:36:08;;;;;;;24.67;8.45;;;26.30;99.90;;;;;;4793076;29;20475;-94
2022/09/08 21:39:02;;;;;;;17.63;8.73;;;26.30;99.90;;;;;;4778845;29;20042;-92
2022/09/08 21:41:37;;;;;;;27.00;8.75;;;26.30;99.90;;;;;;4790501;29;20130;-92
2022/09/08 21:44:32;;;;;;;19.75;8.02;;;26.30;99.90;;;;;;4780197;29;20039;-91
2022/09/08 21:47:23;;;;;;;17.25;8.23;;;26.30;99.90;;;;;;4783449;29;20031;-90
2022/09/08 21:49:55;;;;;;;20.77;8.38;;;26.30;99.90;;;;;;4780855;29;20050;-93
2022/09/08 21:52:28;;;;;;;18.83;8.80;;;26.30;99.90;;;;;;4778220;29;20050;-91
2022/09/08 21:54:58;;;;;;;24.38;9.90;;;26.30;99.90;;;;;;4777827;29;20037;-92
2022/09/08 21:57:34;;;;;;;14.20;7.90;;;26.30;99.90;;;;;;4792629;29;20060;-91
2022/09/08 22:00:07;;;;;;;20.45;8.13;;;26.30;99.90;;;;;;4792492;29;20034;-91
2022/09/08 22:03:06;;;;;;;34.03;10.43;;;26.30;99.90;;;;;;4792624;29;20051;-92
2022/09/08 22:05:47;;;;;;;19.90;7.78;;;26.20;99.90;;;;;;4829921;29;20034;-93
2022/09/08 22:08:24;;;;;;;25.25;9.00;;;26.30;99.90;;;;;;4832444;29;20090;-91
2022/09/08 22:11:05;;;;;;;19.52;8.30;;;26.20;99.90;;;;;;4847927;29;20113;-90
2022/09/08 22:13:34;;;;;;;20.65;8.50;;;26.20;99.90;;;;;;4832481;29;20077;-89
2022/09/08 22:16:16;;;;;;;14.07;8.38;;;26.20;99.90;;;;;;4832365;29;20440;-91
2022/09/08 22:19:09;;;;;;;22.35;8.82;;;26.10;99.90;;;;;;4832375;29;20040;-92
2022/09/08 22:22:14;;;;;;;22.75;9.10;;;26.10;99.90;;;;;;4832342;29;20041;-92
2022/09/08 22:24:58;;;;;;;13.43;8.77;;;26.10;99.90;;;;;;4832178;29;20041;-92
2022/09/08 22:27:39;;;;;;;20.60;8.77;;;26.10;99.90;;;;;;4832193;29;20067;-91
2022/09/08 22:30:14;;;;;;;20.00;8.00;;;26.00;99.90;;;;;;4831945;29;20294;-93
2022/09/08 22:32:58;;;;;;;24.35;8.00;;;26.00;99.90;;;;;;4831875;29;20082;-93
2022/09/08 22:35:28;;;;;;;21.45;8.68;;;26.00;99.90;;;;;;4831982;29;20037;-91
2022/09/08 22:38:02;;;;;;;21.42;8.55;;;26.10;99.90;;;;;;4832003;29;20058;-94
2022/09/08 22:40:36;;;;;;;;;;;26.00;99.90;;;;;;4832549;29;20033;-92
2022/09/08 22:43:27;;;;;;;18.88;8.27;;;26.10;99.90;;;;;;4847089;29;19924;-92
2022/09/08 22:46:13;;;;;;;18.45;8.32;;;26.10;99.90;;;;;;4832387;29;20500;-93
2022/09/08 22:49:05;;;;;;;22.17;8.88;;;26.00;99.90;;;;;;4832021;29;20141;-93
2022/09/08 22:51:42;;;;;;;14.93;7.68;;;26.00;99.90;;;;;;4832193;29;20035;-92
2022/09/08 22:54:37;;;;;;;20.30;8.27;;;26.00;99.90;;;;;;4831739;29;20041;-92
2022/09/08 22:57:09;;;;;;;19.50;8.15;;;26.00;99.90;;;;;;4832220;29;20033;-93
2022/09/08 22:59:49;;;;;;;16.45;8.15;;;26.00;99.90;;;;;;4832168;29;20038;-92
2022/09/08 23:02:40;;;;;;;14.98;8.20;;;26.00;99.90;;;;;;4831803;29;20041;-93
2022/09/08 23:05:27;;;;;;;16.00;8.02;;;26.00;99.90;;;;;;4832085;29;20033;-92
2022/09/08 23:07:56;;;;;;;19.67;8.18;;;25.90;99.90;;;;;;4831804;29;20033;-92
2022/09/08 23:10:27;;;;;;;19.50;8.20;;;25.90;99.90;;;;;;4831511;29;20038;-93
2022/09/08 23:13:37;;;;;;;15.63;8.75;;;25.90;99.90;;;;;;4831416;29;20034;-92
2022/09/08 23:16:20;;;;;;;17.33;7.13;;;25.90;99.90;;;;;;4807520;29;20126;-94
2022/09/08 23:18:58;;;;;;;17.95;8.13;;;25.80;99.90;;;;;;4813101;29;20098;-92
2022/09/08 23:21:29;;;;;;;22.90;7.82;;;25.90;99.90;;;;;;4812279;29;20181;-93
2022/09/08 23:23:57;;;;;;;15.88;7.63;;;25.80;99.90;;;;;;4812710;29;20048;-92
2022/09/08 23:26:44;;;;;;;24.38;8.50;;;25.80;99.90;;;;;;4812843;29;20054;-93
2022/09/08 23:29:10;;;;;;;16.45;7.80;;;25.80;99.90;;;;;;4812835;29;20223;-93
2022/09/08 23:31:37;;;;;;;19.50;7.53;;;25.80;99.90;;;;;;4812862;29;20030;-92
2022/09/08 23:34:15;;;;;;;17.20;7.75;;;25.80;99.90;;;;;;4812724;29;20040;-91
2022/09/08 23:36:48;;;;;;;17.48;7.65;;;25.80;99.90;;;;;;4812682;29;20034;-93
2022/09/08 23:39:44;;;;;;;19.47;7.10;;;25.80;99.90;;;;;;4812483;29;20052;-93
2022/09/08 23:42:14;;;;;;;15.10;7.75;;;25.80;99.90;;;;;;4825135;29;20057;-93
2022/09/08 23:44:41;;;;;;;17.67;7.05;;;25.80;99.90;;;;;;4812691;29;20032;-93
2022/09/08 23:47:23;;;;;;;16.67;6.35;;;25.80;99.90;;;;;;4812461;29;20033;-91
2022/09/08 23:49:52;;;;;;;20.08;8.02;;;25.80;99.90;;;;;;4812717;29;20026;-94
2022/09/08 23:52:19;;;;;;;27.63;8.10;;;25.70;99.90;;;;;;4812520;29;20506;-92
2022/09/08 23:54:50;;;;;;;19.58;7.38;;;25.80;99.90;;;;;;4812614;29;20033;-94
2022/09/08 23:57:21;;;;;;;14.38;7.07;;;25.80;99.90;;;;;;4812553;29;20041;-93
2022/09/08 23:59:48;;;;;;;22.45;7.85;;;25.80;99.90;;;;;;4812416;29;20034;-91
